Gieszen-Lutzellinden Airport


Codes: EDFL/
Name: Gieszen-Lutzellinden Airport
City: Gieszen
Country: Germany
Elevation: 755 ft.

Photos at Gieszen-Lutzellinden Airport


   Photos courtesy of SpottingLog. You can add your own sightings and photos by signing up for a free trial today.



No photos found.

Weather at Gieszen-Lutzellinden Airport


Time (UTC)DescriptionTempratureWindCloud coverageVisibilityPressureHumidity
25-Jun-2024 12:00Clear Sky26°C7 mph, E0%10000m1015hPa52%
25-Jun-2024 15:00Clear Sky26°C9 mph, NE1%10000m1014hPa52%
25-Jun-2024 18:00Clear Sky23°C9 mph, NE1%10000m1014hPa64%
25-Jun-2024 21:00Scattered Clouds16°C4 mph, N31%10000m1013hPa87%
26-Jun-2024 00:00Broken Clouds14°C4 mph, N52%10000m1013hPa94%
26-Jun-2024 03:00Clear Sky14°C4 mph, N6%10000m1012hPa95%
26-Jun-2024 06:00Clear Sky18°C7 mph, N3%10000m1012hPa78%
26-Jun-2024 09:00Clear Sky24°C7 mph, NE1%10000m1011hPa67%
26-Jun-2024 12:00Few Clouds27°C7 mph, E20%10000m1010hPa54%
26-Jun-2024 15:00Broken Clouds28°C2 mph, N79%10000m1009hPa58%
26-Jun-2024 18:00Broken Clouds24°C4 mph, N58%10000m1008hPa76%
26-Jun-2024 21:00Light Rain20°C4 mph, N30%10000m1009hPa89%
27-Jun-2024 00:00Light Rain19°C4 mph, N59%10000m1009hPa92%
27-Jun-2024 03:00Broken Clouds18°C2 mph, NW62%10000m1009hPa93%
27-Jun-2024 06:00Broken Clouds21°C2 mph, SW81%10000m1009hPa85%
27-Jun-2024 09:00Light Rain25°C2 mph, SW59%10000m1009hPa70%
27-Jun-2024 12:00Light Rain28°C7 mph, SW62%10000m1008hPa51%
27-Jun-2024 15:00Scattered Clouds29°C7 mph, W29%10000m1008hPa49%
27-Jun-2024 18:00Light Rain25°C4 mph, W35%10000m1009hPa74%
27-Jun-2024 21:00Light Rain19°C7 mph, W25%10000m1011hPa94%
28-Jun-2024 00:00Scattered Clouds17°C2 mph, SW42%10000m1011hPa95%
28-Jun-2024 03:00Overcast Clouds17°C2 mph, SW97%10000m1012hPa96%
28-Jun-2024 06:00Broken Clouds19°C4 mph, W61%10000m1014hPa92%
28-Jun-2024 09:00Overcast Clouds18°C7 mph, NW100%10000m1016hPa84%
28-Jun-2024 12:00Overcast Clouds24°C9 mph, W100%10000m1016hPa53%
28-Jun-2024 15:00Broken Clouds24°C7 mph, NW62%10000m1016hPa43%
28-Jun-2024 18:00Scattered Clouds21°C7 mph, NW37%10000m1017hPa63%
28-Jun-2024 21:00Few Clouds14°C2 mph, NW14%10000m1018hPa71%
29-Jun-2024 00:00Scattered Clouds12°C4 mph, N34%10000m1017hPa81%
29-Jun-2024 03:00Overcast Clouds12°C4 mph, N95%10000m1016hPa93%
29-Jun-2024 06:00Overcast Clouds16°C4 mph, N97%10000m1015hPa77%
29-Jun-2024 09:00Light Rain21°C4 mph, E87%10000m1013hPa77%
29-Jun-2024 12:00Light Rain25°C4 mph, E93%10000m1011hPa77%
29-Jun-2024 15:00Light Rain26°C2 mph, W81%2873m1008hPa80%
29-Jun-2024 18:00Heavy Intensity Rain17°C7 mph, N90%10000m1008hPa97%
29-Jun-2024 21:00Light Rain17°C2 mph, SW100%10000m1008hPa97%
30-Jun-2024 00:00Light Rain17°C4 mph, SE100%10000m1006hPa98%
30-Jun-2024 03:00Overcast Clouds17°C9 mph, SW100%10000m1006hPa95%
30-Jun-2024 06:00Light Rain16°C11 mph, W100%3197m1009hPa96%
30-Jun-2024 09:00Light Rain20°C9 mph, W88%10000m1011hPa68%